Terminal Aerodrome Forecast
Issued by NWS Missoula, MT

Home | Current Version | Previous Version | Text Only | Print | Product List | Glossary On
Versions: 1 2 3 4 5 6 7 8 9 10 11 12 13 14 15 16 17
000
FTUS45 KMSO 241121
TAFBTM
TAF
KBTM 241121Z 2412/2512 24006KT P6SM BKN080
     FM241700 26010KT P6SM VCSH BKN080
     FM242300 27006KT P6SM BKN100=

USA.gov is the U.S. government's official web portal to all federal, state and local government web resources and services.